sensor_id;sensor_type;location;lat;lon;timestamp;pressure;altitude;pressure_sealevel;temperature;humidity
11643;BME280;5877;50.930;6.918;2023-01-19T00:03:02;99723.56;;;0.11;77.08
11643;BME280;5877;50.930;6.918;2023-01-19T00:07:55;99593.94;;;-0.85;77.30
11643;BME280;5877;50.930;6.918;2023-01-19T00:12:46;99712.94;;;0.06;77.40
11643;BME280;5877;50.930;6.918;2023-01-19T00:17:38;99673.03;;;-0.14;77.21
11643;BME280;5877;50.930;6.918;2023-01-19T00:22:31;99684.94;;;-0.05;76.79
11643;BME280;5877;50.930;6.918;2023-01-19T00:27:23;99647.59;;;-0.17;76.42
11643;BME280;5877;50.930;6.918;2023-01-19T00:32:15;99673.16;;;0.31;75.98
11643;BME280;5877;50.930;6.918;2023-01-19T00:37:08;99701.09;;;0.59;74.88
11643;BME280;5877;50.930;6.918;2023-01-19T00:42:00;99673.84;;;0.56;74.83
11643;BME280;5877;50.930;6.918;2023-01-19T00:47:10;99705.44;;;0.89;74.23
11643;BME280;5877;50.930;6.918;2023-01-19T00:52:02;99608.81;;;0.30;73.94
11643;BME280;5877;50.930;6.918;2023-01-19T00:56:53;99693.72;;;0.79;73.94
11643;BME280;5877;50.930;6.918;2023-01-19T01:01:45;99717.41;;;0.90;75.09
11643;BME280;5877;50.930;6.918;2023-01-19T01:06:37;99646.78;;;0.52;74.96
11643;BME280;5877;50.930;6.918;2023-01-19T01:11:28;99635.41;;;0.61;73.94
11643;BME280;5877;50.930;6.918;2023-01-19T01:16:20;99595.75;;;0.31;74.04
11643;BME280;5877;50.930;6.918;2023-01-19T01:21:13;99635.81;;;0.50;73.67
11643;BME280;5877;50.930;6.918;2023-01-19T01:26:05;99689.00;;;0.59;74.22
11643;BME280;5877;50.930;6.918;2023-01-19T01:30:56;99646.72;;;0.29;74.56
11643;BME280;5877;50.930;6.918;2023-01-19T01:35:48;99625.22;;;0.06;74.83
11643;BME280;5877;50.930;6.918;2023-01-19T01:40:41;99746.09;;;0.64;75.05
11643;BME280;5877;50.930;6.918;2023-01-19T01:45:35;99671.56;;;0.30;74.24
11643;BME280;5877;50.930;6.918;2023-01-19T01:50:28;99716.81;;;0.80;73.23
11643;BME280;5877;50.930;6.918;2023-01-19T01:55:22;99705.34;;;1.06;72.74
11643;BME280;5877;50.930;6.918;2023-01-19T02:00:15;99718.31;;;1.20;72.31
11643;BME280;5877;50.930;6.918;2023-01-19T02:10:10;99705.16;;;0.84;73.07
11643;BME280;5877;50.930;6.918;2023-01-19T02:15:21;99693.94;;;0.69;73.44
11643;BME280;5877;50.930;6.918;2023-01-19T02:20:13;99721.97;;;0.80;74.15
11643;BME280;5877;50.930;6.918;2023-01-19T02:25:05;99700.44;;;0.65;73.75
11643;BME280;5877;50.930;6.918;2023-01-19T02:29:58;99690.44;;;0.62;74.13
11643;BME280;5877;50.930;6.918;2023-01-19T02:34:50;99674.81;;;0.55;74.25
11643;BME280;5877;50.930;6.918;2023-01-19T02:39:44;99738.34;;;0.95;74.57
11643;BME280;5877;50.930;6.918;2023-01-19T02:44:38;99686.28;;;0.53;74.95
11643;BME280;5877;50.930;6.918;2023-01-19T02:49:31;99685.66;;;0.51;75.26
11643;BME280;5877;50.930;6.918;2023-01-19T03:04:32;99741.06;;;1.02;74.59
11643;BME280;5877;50.930;6.918;2023-01-19T03:09:52;99554.28;;;-0.21;73.67
11643;BME280;5877;50.930;6.918;2023-01-19T03:14:51;99640.31;;;0.25;74.32
11643;BME280;5877;50.930;6.918;2023-01-19T03:19:48;99740.69;;;0.82;74.04
11643;BME280;5877;50.930;6.918;2023-01-19T03:24:42;99662.25;;;0.21;74.29
11643;BME280;5877;50.930;6.918;2023-01-19T03:29:37;99755.94;;;0.69;74.72
11643;BME280;5877;50.930;6.918;2023-01-19T03:34:31;99718.91;;;0.46;75.32
11643;BME280;5877;50.930;6.918;2023-01-19T03:39:25;99669.53;;;0.18;74.94
11643;BME280;5877;50.930;6.918;2023-01-19T03:44:17;99741.44;;;0.91;74.30
11643;BME280;5877;50.930;6.918;2023-01-19T03:49:09;99654.25;;;0.70;72.63
11643;BME280;5877;50.930;6.918;2023-01-19T03:54:02;99611.59;;;0.51;71.99
11643;BME280;5877;50.930;6.918;2023-01-19T03:58:54;99699.94;;;1.15;71.31
11643;BME280;5877;50.930;6.918;2023-01-19T04:03:51;99751.50;;;1.54;71.62
11643;BME280;5877;50.930;6.918;2023-01-19T04:08:43;99752.53;;;1.45;71.50
11643;BME280;5877;50.930;6.918;2023-01-19T04:13:35;99622.84;;;0.81;71.23
11643;BME280;5877;50.930;6.918;2023-01-19T04:18:28;99543.22;;;0.47;70.45
11643;BME280;5877;50.930;6.918;2023-01-19T04:23:20;99685.41;;;1.37;70.30
11643;BME280;5877;50.930;6.918;2023-01-19T04:28:12;99621.75;;;0.98;70.97
11643;BME280;5877;50.930;6.918;2023-01-19T04:33:04;99740.03;;;1.72;70.63
11643;BME280;5877;50.930;6.918;2023-01-19T04:37:55;99739.88;;;1.88;70.47
11643;BME280;5877;50.930;6.918;2023-01-19T04:42:47;99691.50;;;1.59;69.78
11643;BME280;5877;50.930;6.918;2023-01-19T04:47:39;99661.81;;;1.55;69.40
11643;BME280;5877;50.930;6.918;2023-01-19T04:52:34;99750.09;;;2.19;68.60
11643;BME280;5877;50.930;6.918;2023-01-19T04:57:26;99680.81;;;1.77;68.73
11643;BME280;5877;50.930;6.918;2023-01-19T05:02:17;99752.03;;;2.32;68.59
11643;BME280;5877;50.930;6.918;2023-01-19T05:07:09;99725.44;;;2.08;68.66
11643;BME280;5877;50.930;6.918;2023-01-19T05:12:01;99674.50;;;1.79;69.07
11643;BME280;5877;50.930;6.918;2023-01-19T05:16:52;99765.16;;;2.30;68.50
11643;BME280;5877;50.930;6.918;2023-01-19T05:21:44;99639.59;;;1.46;69.26
11643;BME280;5877;50.930;6.918;2023-01-19T05:26:36;99746.16;;;2.08;70.52
11643;BME280;5877;50.930;6.918;2023-01-19T05:31:28;99745.59;;;1.98;71.90
11643;BME280;5877;50.930;6.918;2023-01-19T05:36:19;99600.19;;;0.91;73.50
11643;BME280;5877;50.930;6.918;2023-01-19T05:41:11;99778.16;;;1.92;74.97
11643;BME280;5877;50.930;6.918;2023-01-19T05:46:03;99784.03;;;1.86;76.14
11643;BME280;5877;50.930;6.918;2023-01-19T05:50:59;99783.31;;;1.78;76.89
11643;BME280;5877;50.930;6.918;2023-01-19T05:55:51;99752.03;;;1.50;78.04
11643;BME280;5877;50.930;6.918;2023-01-19T06:00:43;99679.16;;;0.86;79.64
11643;BME280;5877;50.930;6.918;2023-01-19T06:05:35;99794.25;;;1.42;80.80
11643;BME280;5877;50.930;6.918;2023-01-19T06:10:28;99636.94;;;0.48;81.82
11643;BME280;5877;50.930;6.918;2023-01-19T06:15:20;99717.78;;;0.79;83.42
11643;BME280;5877;50.930;6.918;2023-01-19T06:20:13;99691.94;;;0.56;83.82
11643;BME280;5877;50.930;6.918;2023-01-19T06:25:05;99733.38;;;0.63;84.26
11643;BME280;5877;50.930;6.918;2023-01-19T06:29:56;99789.75;;;0.82;85.38
11643;BME280;5877;50.930;6.918;2023-01-19T06:34:48;99802.94;;;0.95;85.59
11643;BME280;5877;50.930;6.918;2023-01-19T06:39:40;99808.34;;;0.78;85.22
11643;BME280;5877;50.930;6.918;2023-01-19T06:44:32;99788.50;;;0.78;86.02
11643;BME280;5877;50.930;6.918;2023-01-19T06:49:24;99780.28;;;0.75;86.10
11643;BME280;5877;50.930;6.918;2023-01-19T06:54:16;99821.19;;;0.94;85.65
11643;BME280;5877;50.930;6.918;2023-01-19T06:59:07;99794.78;;;0.76;85.83
11643;BME280;5877;50.930;6.918;2023-01-19T07:04:00;99808.66;;;0.83;86.04
11643;BME280;5877;50.930;6.918;2023-01-19T07:08:53;99843.25;;;1.05;85.37
11643;BME280;5877;50.930;6.918;2023-01-19T07:13:45;99847.59;;;1.12;85.51
11643;BME280;5877;50.930;6.918;2023-01-19T07:18:42;99770.16;;;0.65;85.33
11643;BME280;5877;50.930;6.918;2023-01-19T07:23:34;99739.09;;;0.42;85.84
11643;BME280;5877;50.930;6.918;2023-01-19T07:28:27;99843.91;;;1.07;86.10
11643;BME280;5877;50.930;6.918;2023-01-19T07:33:19;99844.41;;;1.02;85.54
11643;BME280;5877;50.930;6.918;2023-01-19T07:38:12;99876.13;;;1.19;85.90
11643;BME280;5877;50.930;6.918;2023-01-19T07:43:04;99843.00;;;0.91;85.99
11643;BME280;5877;50.930;6.918;2023-01-19T07:47:55;99857.78;;;1.06;86.13
11643;BME280;5877;50.930;6.918;2023-01-19T07:52:47;99849.84;;;1.15;85.98
11643;BME280;5877;50.930;6.918;2023-01-19T07:57:42;99853.84;;;1.18;85.52
11643;BME280;5877;50.930;6.918;2023-01-19T08:02:33;99772.56;;;0.67;85.45
11643;BME280;5877;50.930;6.918;2023-01-19T08:07:26;99797.34;;;0.84;85.23
11643;BME280;5877;50.930;6.918;2023-01-19T08:12:17;99871.91;;;1.26;85.12
11643;BME280;5877;50.930;6.918;2023-01-19T08:17:11;99880.88;;;1.38;85.46
11643;BME280;5877;50.930;6.918;2023-01-19T08:22:03;99908.91;;;1.57;84.90
11643;BME280;5877;50.930;6.918;2023-01-19T08:27:01;99855.50;;;1.42;84.66
11643;BME280;5877;50.930;6.918;2023-01-19T08:31:52;99774.19;;;0.98;84.26
11643;BME280;5877;50.930;6.918;2023-01-19T08:36:46;99899.94;;;1.68;83.72
11643;BME280;5877;50.930;6.918;2023-01-19T08:41:38;99909.84;;;1.65;83.42
11643;BME280;5877;50.930;6.918;2023-01-19T08:46:29;99858.38;;;1.47;83.82
11643;BME280;5877;50.930;6.918;2023-01-19T08:51:21;99944.47;;;2.09;83.12
11643;BME280;5877;50.930;6.918;2023-01-19T08:56:13;99776.03;;;1.13;82.93
11643;BME280;5877;50.930;6.918;2023-01-19T09:01:06;99876.50;;;1.92;82.40
11643;BME280;5877;50.930;6.918;2023-01-19T09:05:59;99898.41;;;2.05;81.96
11643;BME280;5877;50.930;6.918;2023-01-19T09:10:50;99923.75;;;2.09;81.93
11643;BME280;5877;50.930;6.918;2023-01-19T09:15:42;99862.34;;;1.80;81.30
11643;BME280;5877;50.930;6.918;2023-01-19T09:20:34;99970.03;;;2.50;81.21
11643;BME280;5877;50.930;6.918;2023-01-19T09:25:26;99968.47;;;2.78;81.89
11643;BME280;5877;50.930;6.918;2023-01-19T09:30:18;99971.88;;;2.93;80.96
11643;BME280;5877;50.930;6.918;2023-01-19T09:35:10;99821.94;;;2.17;80.09
11643;BME280;5877;50.930;6.918;2023-01-19T09:40:03;99965.00;;;3.15;79.36
11643;BME280;5877;50.930;6.918;2023-01-19T09:44:55;99763.53;;;1.85;78.50
11643;BME280;5877;50.930;6.918;2023-01-19T09:49:54;99963.84;;;3.18;78.72
11643;BME280;5877;50.930;6.918;2023-01-19T09:54:53;99945.69;;;3.18;78.27
11643;BME280;5877;50.930;6.918;2023-01-19T09:59:46;99971.16;;;3.44;78.12
11643;BME280;5877;50.930;6.918;2023-01-19T10:04:42;99984.31;;;3.28;78.30
11643;BME280;5877;50.930;6.918;2023-01-19T10:10:04;100016.47;;;3.04;80.32
11643;BME280;5877;50.930;6.918;2023-01-19T10:15:31;100000.47;;;2.85;80.90
11643;BME280;5877;50.930;6.918;2023-01-19T10:20:37;99919.66;;;2.38;80.19
11643;BME280;5877;50.930;6.918;2023-01-19T10:25:31;99971.09;;;2.41;81.02
11643;BME280;5877;50.930;6.918;2023-01-19T10:30:26;99961.06;;;2.38;81.40
11643;BME280;5877;50.930;6.918;2023-01-19T10:35:21;99947.38;;;2.29;81.21
11643;BME280;5877;50.930;6.918;2023-01-19T10:40:31;100034.53;;;2.97;80.49
11643;BME280;5877;50.930;6.918;2023-01-19T10:45:26;100027.59;;;3.27;80.99
11643;BME280;5877;50.930;6.918;2023-01-19T10:50:30;99982.50;;;3.28;79.48
11643;BME280;5877;50.930;6.918;2023-01-19T10:55:27;100036.97;;;4.08;77.80
11643;BME280;5877;50.930;6.918;2023-01-19T11:05:25;100037.59;;;4.10;76.29
11643;BME280;5877;50.930;6.918;2023-01-19T11:10:26;99912.69;;;3.26;77.37
11643;BME280;5877;50.930;6.918;2023-01-19T11:15:29;99918.97;;;3.53;76.20
11643;BME280;5877;50.930;6.918;2023-01-19T11:20:33;100003.97;;;4.23;76.84
11643;BME280;5877;50.930;6.918;2023-01-19T11:25:28;99948.63;;;4.02;75.51
11643;BME280;5877;50.930;6.918;2023-01-19T11:30:24;100030.47;;;4.83;75.03
11643;BME280;5877;50.930;6.918;2023-01-19T11:35:37;100026.28;;;5.10;73.97
11643;BME280;5877;50.930;6.918;2023-01-19T11:40:30;100027.19;;;4.96;73.54
11643;BME280;5877;50.930;6.918;2023-01-19T11:45:22;100037.41;;;4.76;74.15
11643;BME280;5877;50.930;6.918;2023-01-19T11:50:28;99957.94;;;4.39;73.56
11643;BME280;5877;50.930;6.918;2023-01-19T11:55:30;100036.91;;;5.15;73.87
11643;BME280;5877;50.930;6.918;2023-01-19T12:00:27;99978.22;;;5.06;71.55
11643;BME280;5877;50.930;6.918;2023-01-19T12:05:30;100027.53;;;5.62;70.79
11643;BME280;5877;50.930;6.918;2023-01-19T12:10:29;100032.09;;;5.94;70.18
11643;BME280;5877;50.930;6.918;2023-01-19T12:15:42;99959.81;;;5.48;68.02
11643;BME280;5877;50.930;6.918;2023-01-19T12:20:44;100040.75;;;6.01;68.38
11643;BME280;5877;50.930;6.918;2023-01-19T12:30:53;99983.59;;;5.93;67.35
11643;BME280;5877;50.930;6.918;2023-01-19T12:35:57;100032.56;;;6.17;68.42
11643;BME280;5877;50.930;6.918;2023-01-19T12:46:28;100030.16;;;5.68;67.57
11643;BME280;5877;50.930;6.918;2023-01-19T12:51:22;99990.09;;;5.21;69.32
11643;BME280;5877;50.930;6.918;2023-01-19T12:56:15;99999.97;;;5.33;70.02
11643;BME280;5877;50.930;6.918;2023-01-19T13:01:16;99998.81;;;5.42;68.21
11643;BME280;5877;50.930;6.918;2023-01-19T13:06:11;99949.88;;;5.24;68.40
11643;BME280;5877;50.930;6.918;2023-01-19T13:21:35;100034.81;;;6.40;64.70
11643;BME280;5877;50.930;6.918;2023-01-19T13:31:24;100021.59;;;6.48;64.68
11643;BME280;5877;50.930;6.918;2023-01-19T13:36:26;100064.94;;;6.76;62.14
11643;BME280;5877;50.930;6.918;2023-01-19T13:41:23;100066.50;;;6.50;64.40
11643;BME280;5877;50.930;6.918;2023-01-19T13:46:17;100080.75;;;6.48;64.82
11643;BME280;5877;50.930;6.918;2023-01-19T13:51:17;99993.97;;;5.86;65.62
11643;BME280;5877;50.930;6.918;2023-01-19T13:56:18;100068.88;;;6.32;64.84
11643;BME280;5877;50.930;6.918;2023-01-19T14:01:21;100075.00;;;5.98;66.33
11643;BME280;5877;50.930;6.918;2023-01-19T14:06:33;100063.47;;;5.79;67.15
11643;BME280;5877;50.930;6.918;2023-01-19T14:11:26;100028.88;;;5.10;67.76
11643;BME280;5877;50.930;6.918;2023-01-19T14:16:17;100080.75;;;5.18;67.39
11643;BME280;5877;50.930;6.918;2023-01-19T14:21:12;99969.84;;;4.05;69.65
11643;BME280;5877;50.930;6.918;2023-01-19T14:26:04;100006.56;;;4.23;69.82
11643;BME280;5877;50.930;6.918;2023-01-19T14:31:02;100093.31;;;4.65;71.13
11643;BME280;5877;50.930;6.918;2023-01-19T14:35:54;100071.66;;;4.37;73.08
11643;BME280;5877;50.930;6.918;2023-01-19T14:40:45;100059.69;;;4.21;70.78
11643;BME280;5877;50.930;6.918;2023-01-19T14:45:38;100112.88;;;4.61;70.79
11643;BME280;5877;50.930;6.918;2023-01-19T14:50:35;100059.47;;;4.37;69.69
11643;BME280;5877;50.930;6.918;2023-01-19T14:55:34;100087.63;;;4.76;69.28
11643;BME280;5877;50.930;6.918;2023-01-19T15:00:26;100041.97;;;4.46;69.42
11643;BME280;5877;50.930;6.918;2023-01-19T15:05:18;100088.00;;;4.73;70.14
11643;BME280;5877;50.930;6.918;2023-01-19T15:10:18;100057.34;;;4.26;70.10
11643;BME280;5877;50.930;6.918;2023-01-19T15:15:16;100067.44;;;4.00;70.12
11643;BME280;5877;50.930;6.918;2023-01-19T15:20:19;100094.88;;;4.23;69.38
11643;BME280;5877;50.930;6.918;2023-01-19T15:25:13;100076.56;;;4.10;68.19
11643;BME280;5877;50.930;6.918;2023-01-19T15:30:12;100076.94;;;3.92;69.15
11643;BME280;5877;50.930;6.918;2023-01-19T15:35:15;100034.13;;;3.52;69.72
11643;BME280;5877;50.930;6.918;2023-01-19T15:40:08;100145.94;;;4.16;68.96
11643;BME280;5877;50.930;6.918;2023-01-19T15:44:59;100128.94;;;3.99;70.26
11643;BME280;5877;50.930;6.918;2023-01-19T15:49:51;100081.34;;;3.63;70.53
11643;BME280;5877;50.930;6.918;2023-01-19T15:54:43;100072.84;;;3.54;69.65
11643;BME280;5877;50.930;6.918;2023-01-19T15:59:34;100041.78;;;3.16;70.07
11643;BME280;5877;50.930;6.918;2023-01-19T16:04:26;100042.22;;;3.05;70.09
11643;BME280;5877;50.930;6.918;2023-01-19T16:09:18;100153.94;;;3.85;69.88
11643;BME280;5877;50.930;6.918;2023-01-19T16:14:10;100156.00;;;3.90;69.71
11643;BME280;5877;50.930;6.918;2023-01-19T16:19:02;100064.53;;;3.29;68.96
11643;BME280;5877;50.930;6.918;2023-01-19T16:23:54;100121.34;;;3.68;68.38
11643;BME280;5877;50.930;6.918;2023-01-19T16:28:46;100166.28;;;3.98;68.10
11643;BME280;5877;50.930;6.918;2023-01-19T16:33:37;100065.25;;;3.38;69.52
11643;BME280;5877;50.930;6.918;2023-01-19T16:38:29;100041.88;;;3.08;68.91
11643;BME280;5877;50.930;6.918;2023-01-19T16:43:20;100144.06;;;3.66;68.33
11643;BME280;5877;50.930;6.918;2023-01-19T16:48:12;100192.75;;;3.64;69.09
11643;BME280;5877;50.930;6.918;2023-01-19T16:53:04;100207.88;;;3.61;68.65
11643;BME280;5877;50.930;6.918;2023-01-19T16:57:56;100171.69;;;3.44;68.46
11643;BME280;5877;50.930;6.918;2023-01-19T17:02:47;100132.16;;;3.05;67.58
11643;BME280;5877;50.930;6.918;2023-01-19T17:07:39;100097.31;;;2.84;67.90
11643;BME280;5877;50.930;6.918;2023-01-19T17:12:31;100129.44;;;3.21;68.80
11643;BME280;5877;50.930;6.918;2023-01-19T17:17:22;100204.53;;;3.52;67.88
11643;BME280;5877;50.930;6.918;2023-01-19T17:22:14;100213.53;;;3.41;67.07
11643;BME280;5877;50.930;6.918;2023-01-19T17:27:06;99999.97;;;2.07;66.46
11643;BME280;5877;50.930;6.918;2023-01-19T17:31:57;100218.00;;;3.70;66.71
11643;BME280;5877;50.930;6.918;2023-01-19T17:36:49;100148.16;;;3.31;67.01
11643;BME280;5877;50.930;6.918;2023-01-19T17:41:41;100173.16;;;3.24;66.36
11643;BME280;5877;50.930;6.918;2023-01-19T17:46:36;100229.13;;;3.41;66.31
11643;BME280;5877;50.930;6.918;2023-01-19T17:51:29;100232.63;;;3.25;66.88
11643;BME280;5877;50.930;6.918;2023-01-19T17:56:23;100236.56;;;3.21;67.44
11643;BME280;5877;50.930;6.918;2023-01-19T18:01:25;100233.66;;;3.16;67.76
11643;BME280;5877;50.930;6.918;2023-01-19T18:06:18;100235.47;;;3.16;67.89
11643;BME280;5877;50.930;6.918;2023-01-19T18:11:12;100190.63;;;2.84;67.77
11643;BME280;5877;50.930;6.918;2023-01-19T18:16:06;100231.56;;;2.89;68.40
11643;BME280;5877;50.930;6.918;2023-01-19T18:20:59;100235.28;;;2.64;68.61
11643;BME280;5877;50.930;6.918;2023-01-19T18:26:05;100140.28;;;1.94;68.93
11643;BME280;5877;50.930;6.918;2023-01-19T18:30:58;100118.63;;;1.87;68.62
11643;BME280;5877;50.930;6.918;2023-01-19T18:35:49;100250.91;;;2.78;69.14
11643;BME280;5877;50.930;6.918;2023-01-19T18:40:41;100148.53;;;2.28;69.25
11643;BME280;5877;50.930;6.918;2023-01-19T18:45:33;100205.22;;;2.54;71.78
11643;BME280;5877;50.930;6.918;2023-01-19T18:50:25;100192.06;;;2.33;73.15
11643;BME280;5877;50.930;6.918;2023-01-19T18:55:16;100209.50;;;2.39;74.38
11643;BME280;5877;50.930;6.918;2023-01-19T19:00:09;100156.78;;;1.85;75.07
11643;BME280;5877;50.930;6.918;2023-01-19T19:05:01;100250.44;;;2.44;75.01
11643;BME280;5877;50.930;6.918;2023-01-19T19:09:53;100252.25;;;2.35;74.84
11643;BME280;5877;50.930;6.918;2023-01-19T19:14:44;100151.38;;;1.55;74.89
11643;BME280;5877;50.930;6.918;2023-01-19T19:19:36;100159.13;;;1.47;74.63
11643;BME280;5877;50.930;6.918;2023-01-19T19:24:28;100211.47;;;1.66;75.20
11643;BME280;5877;50.930;6.918;2023-01-19T19:29:20;100236.84;;;1.78;76.00
11643;BME280;5877;50.930;6.918;2023-01-19T19:34:11;100267.56;;;1.89;76.44
11643;BME280;5877;50.930;6.918;2023-01-19T19:39:03;100266.75;;;1.81;76.43
11643;BME280;5877;50.930;6.918;2023-01-19T19:43:55;100221.34;;;1.46;75.79
11643;BME280;5877;50.930;6.918;2023-01-19T19:48:47;100274.03;;;1.77;76.36
11643;BME280;5877;50.930;6.918;2023-01-19T19:53:39;100016.72;;;0.12;76.25
11643;BME280;5877;50.930;6.918;2023-01-19T19:58:31;100214.06;;;1.17;76.00
11643;BME280;5877;50.930;6.918;2023-01-19T20:03:25;100289.41;;;1.46;76.92
11643;BME280;5877;50.930;6.918;2023-01-19T20:08:17;100284.22;;;1.38;76.91
11643;BME280;5877;50.930;6.918;2023-01-19T20:13:09;100294.56;;;1.38;77.01
11643;BME280;5877;50.930;6.918;2023-01-19T20:18:00;100327.03;;;1.33;77.08
11643;BME280;5877;50.930;6.918;2023-01-19T20:22:52;100309.41;;;1.36;77.17
11643;BME280;5877;50.930;6.918;2023-01-19T20:27:44;100233.88;;;0.76;76.90
11643;BME280;5877;50.930;6.918;2023-01-19T20:32:38;100291.75;;;1.07;77.35
11643;BME280;5877;50.930;6.918;2023-01-19T20:37:29;100197.72;;;0.33;77.65
11643;BME280;5877;50.930;6.918;2023-01-19T20:42:21;100320.50;;;1.12;77.83
11643;BME280;5877;50.930;6.918;2023-01-19T20:47:13;100061.31;;;-0.54;77.24
11643;BME280;5877;50.930;6.918;2023-01-19T20:52:04;100229.91;;;0.55;77.61
11643;BME280;5877;50.930;6.918;2023-01-19T20:56:56;100310.19;;;1.12;77.40
11643;BME280;5877;50.930;6.918;2023-01-19T21:01:48;100277.97;;;0.90;76.37
11643;BME280;5877;50.930;6.918;2023-01-19T21:06:40;100350.16;;;1.42;75.74
11643;BME280;5877;50.930;6.918;2023-01-19T21:11:32;100294.50;;;1.06;75.62
11643;BME280;5877;50.930;6.918;2023-01-19T21:16:26;100340.63;;;1.43;75.55
11643;BME280;5877;50.930;6.918;2023-01-19T21:21:19;100273.81;;;0.97;74.55
11643;BME280;5877;50.930;6.918;2023-01-19T21:26:21;100318.44;;;1.24;74.93
11643;BME280;5877;50.930;6.918;2023-01-19T21:31:13;100370.69;;;1.44;74.83
11643;BME280;5877;50.930;6.918;2023-01-19T21:36:05;100394.00;;;1.68;74.62
11643;BME280;5877;50.930;6.918;2023-01-19T21:40:57;100396.94;;;1.73;75.57
11643;BME280;5877;50.930;6.918;2023-01-19T21:45:49;100299.00;;;0.95;75.45
11643;BME280;5877;50.930;6.918;2023-01-19T21:50:41;100389.78;;;1.59;75.40
11643;BME280;5877;50.930;6.918;2023-01-19T21:55:33;100344.47;;;1.30;75.56
11643;BME280;5877;50.930;6.918;2023-01-19T22:00:27;100414.22;;;1.65;75.15
11643;BME280;5877;50.930;6.918;2023-01-19T22:05:19;100420.50;;;1.62;75.57
11643;BME280;5877;50.930;6.918;2023-01-19T22:10:11;100338.25;;;0.99;75.33
11643;BME280;5877;50.930;6.918;2023-01-19T22:15:03;100427.78;;;1.67;75.39
11643;BME280;5877;50.930;6.918;2023-01-19T22:19:55;100438.16;;;1.75;75.15
11643;BME280;5877;50.930;6.918;2023-01-19T22:24:48;100440.78;;;1.91;74.67
11643;BME280;5877;50.930;6.918;2023-01-19T22:29:40;100427.19;;;1.81;74.14
11643;BME280;5877;50.930;6.918;2023-01-19T22:34:32;100350.63;;;1.38;73.41
11643;BME280;5877;50.930;6.918;2023-01-19T22:39:23;100470.22;;;1.98;73.58
11643;BME280;5877;50.930;6.918;2023-01-19T22:44:17;100392.50;;;1.49;73.47
11643;BME280;5877;50.930;6.918;2023-01-19T22:49:14;100377.94;;;1.40;73.59
11643;BME280;5877;50.930;6.918;2023-01-19T22:54:07;100376.91;;;1.17;74.78
11643;BME280;5877;50.930;6.918;2023-01-19T22:58:59;100422.22;;;1.37;74.66
11643;BME280;5877;50.930;6.918;2023-01-19T23:03:52;100369.84;;;0.85;75.94
11643;BME280;5877;50.930;6.918;2023-01-19T23:08:44;100466.81;;;1.39;75.99
11643;BME280;5877;50.930;6.918;2023-01-19T23:13:36;100370.56;;;0.69;75.98
11643;BME280;5877;50.930;6.918;2023-01-19T23:18:28;100466.78;;;1.31;76.35
11643;BME280;5877;50.930;6.918;2023-01-19T23:23:20;100382.91;;;0.83;76.32
11643;BME280;5877;50.930;6.918;2023-01-19T23:28:12;100479.84;;;1.21;76.39
11643;BME280;5877;50.930;6.918;2023-01-19T23:33:03;100490.97;;;1.22;76.65
11643;BME280;5877;50.930;6.918;2023-01-19T23:37:55;100487.31;;;1.33;76.94
11643;BME280;5877;50.930;6.918;2023-01-19T23:42:47;100469.38;;;1.31;76.57
11643;BME280;5877;50.930;6.918;2023-01-19T23:47:38;100434.34;;;1.03;75.86
11643;BME280;5877;50.930;6.918;2023-01-19T23:52:33;100473.66;;;1.14;75.99
11643;BME280;5877;50.930;6.918;2023-01-19T23:57:25;100416.34;;;0.85;76.02
